Time;durP1;ratioP1;P1;durP2;ratioP2;P2;SDS_P1;SDS_P2;PMS_P1;PMS_P2;Temp;Humidity;BMP_temperature;BMP_pressure;BME280_temperature;BME280_humidity;BME280_pressure;Samples;Min_cycle;Max_cycle;Signal;HPM_P1;HPM_P2
2023/01/31 00:00:12;;;;;;;9.13;4.32;;;;;;;;;;5053475;28;20021;-62
2023/01/31 00:02:38;;;;;;;8.55;4.30;;;;;;;;;;5053073;28;20091;-60
2023/01/31 00:05:04;;;;;;;10.50;5.25;;;;;;;;;;5052956;28;20021;-59
2023/01/31 00:07:30;;;;;;;8.30;4.10;;;;;;;;;;5052273;28;20036;-60
2023/01/31 00:09:56;;;;;;;10.68;5.15;;;;;;;;;;5052794;28;20378;-59
2023/01/31 00:12:22;;;;;;;9.05;4.35;;;;;;;;;;5052491;28;20031;-60
2023/01/31 00:14:48;;;;;;;9.10;4.43;;;;;;;;;;5052570;28;20070;-60
2023/01/31 00:17:14;;;;;;;10.25;4.40;;;;;;;;;;5052435;28;20039;-59
2023/01/31 00:19:40;;;;;;;10.68;4.50;;;;;;;;;;5052674;28;20404;-60
2023/01/31 00:22:06;;;;;;;8.23;4.05;;;;;;;;;;5052276;28;20029;-62
2023/01/31 00:24:32;;;;;;;8.13;4.43;;;;;;;;;;5052404;28;20124;-60
2023/01/31 00:26:58;;;;;;;9.75;4.65;;;;;;;;;;5052568;28;20118;-60
2023/01/31 00:29:24;;;;;;;8.93;4.18;;;;;;;;;;5052252;28;20058;-60
2023/01/31 00:31:51;;;;;;;12.27;4.78;;;;;;;;;;5052391;28;20036;-60
2023/01/31 00:34:17;;;;;;;8.18;4.60;;;;;;;;;;5052205;28;20053;-62
2023/01/31 00:36:43;;;;;;;8.90;4.13;;;;;;;;;;5052520;28;20037;-60
2023/01/31 00:39:09;;;;;;;8.38;4.07;;;;;;;;;;5052682;28;20029;-60
2023/01/31 00:41:37;;;;;;;9.75;4.15;;;;;;;;;;5051979;28;20025;-60
2023/01/31 00:44:03;;;;;;;8.18;3.78;;;;;;;;;;5051993;28;20033;-62
2023/01/31 00:46:29;;;;;;;8.63;3.88;;;;;;;;;;5051735;28;20487;-60
2023/01/31 00:48:56;;;;;;;7.55;3.70;;;;;;;;;;5052094;28;20033;-60
2023/01/31 00:51:23;;;;;;;9.23;4.03;;;;;;;;;;5051459;28;20029;-60
2023/01/31 00:53:49;;;;;;;8.05;3.83;;;;;;;;;;5051012;28;20039;-60
2023/01/31 00:56:17;;;;;;;6.93;3.38;;;;;;;;;;5051703;28;20021;-60
2023/01/31 00:58:43;;;;;;;9.90;3.97;;;;;;;;;;5051729;28;20025;-61
2023/01/31 01:01:17;;;;;;;9.50;3.65;;;;;;;;;;5052177;28;20044;-59
2023/01/31 01:03:43;;;;;;;9.45;3.75;;;;;;;;;;5051812;28;20029;-60
2023/01/31 01:06:10;;;;;;;7.72;3.85;;;;;;;;;;5051908;28;20033;-62
2023/01/31 01:08:36;;;;;;;9.57;3.92;;;;;;;;;;5051390;28;20083;-62
2023/01/31 01:11:06;;;;;;;9.68;3.95;;;;;;;;;;5051488;28;20059;-61
2023/01/31 01:13:32;;;;;;;7.88;3.63;;;;;;;;;;5051379;28;20103;-61
2023/01/31 01:16:03;;;;;;;8.48;3.58;;;;;;;;;;5051084;28;20568;-60
2023/01/31 01:18:29;;;;;;;9.43;3.50;;;;;;;;;;5051049;28;20146;-61
2023/01/31 01:20:55;;;;;;;7.38;4.00;;;;;;;;;;5051425;28;20128;-60
2023/01/31 01:23:21;;;;;;;9.52;3.85;;;;;;;;;;5051254;28;20071;-62
2023/01/31 01:25:47;;;;;;;7.35;3.35;;;;;;;;;;5051425;28;20051;-60
2023/01/31 01:28:13;;;;;;;10.23;4.13;;;;;;;;;;5051231;28;20489;-60
2023/01/31 01:30:39;;;;;;;9.25;4.05;;;;;;;;;;5051560;28;20029;-60
2023/01/31 01:33:05;;;;;;;8.93;3.97;;;;;;;;;;5051236;28;20491;-59
2023/01/31 01:35:31;;;;;;;7.30;3.88;;;;;;;;;;5050971;28;20096;-59
2023/01/31 01:37:57;;;;;;;7.25;3.85;;;;;;;;;;5051135;28;20494;-62
2023/01/31 01:40:23;;;;;;;9.90;4.10;;;;;;;;;;5050969;28;20110;-61
2023/01/31 01:42:49;;;;;;;8.75;4.15;;;;;;;;;;5050914;28;20524;-60
2023/01/31 01:45:15;;;;;;;9.80;4.30;;;;;;;;;;5050678;28;20056;-59
2023/01/31 01:47:45;;;;;;;8.07;3.63;;;;;;;;;;5050836;28;20044;-60
2023/01/31 01:50:14;;;;;;;8.50;3.70;;;;;;;;;;5051559;28;20146;-61
2023/01/31 01:52:49;;;;;;;9.73;3.97;;;;;;;;;;5051354;28;20036;-60
2023/01/31 01:55:23;;;;;;;8.67;4.00;;;;;;;;;;5050569;28;20032;-60
2023/01/31 01:57:51;;;;;;;8.05;4.05;;;;;;;;;;5050746;28;20295;-62
2023/01/31 02:00:21;;;;;;;8.35;4.05;;;;;;;;;;5050632;28;20493;-62
2023/01/31 02:02:48;;;;;;;8.77;3.85;;;;;;;;;;5050778;28;20025;-60
2023/01/31 02:05:17;;;;;;;7.75;4.07;;;;;;;;;;5050278;28;20056;-59
2023/01/31 02:07:43;;;;;;;10.85;4.20;;;;;;;;;;5051169;28;20122;-61
2023/01/31 02:10:17;;;;;;;7.47;3.22;;;;;;;;;;5051035;28;20427;-59
2023/01/31 02:12:43;;;;;;;10.20;4.00;;;;;;;;;;5051174;28;20874;-59
2023/01/31 02:15:09;;;;;;;9.00;3.67;;;;;;;;;;5051057;28;20024;-59
2023/01/31 02:17:35;;;;;;;8.88;3.40;;;;;;;;;;5050477;28;20040;-61
2023/01/31 02:20:16;;;;;;;8.75;3.92;;;;;;;;;;5050611;28;20025;-59
2023/01/31 02:23:01;;;;;;;8.23;3.63;;;;;;;;;;5050947;28;20424;-62
2023/01/31 02:25:39;;;;;;;8.82;3.53;;;;;;;;;;5050409;28;20025;-62
2023/01/31 02:28:11;;;;;;;7.50;3.67;;;;;;;;;;5050659;28;20029;-60
2023/01/31 02:30:49;;;;;;;6.25;3.42;;;;;;;;;;5050313;28;20385;-60
2023/01/31 02:33:34;;;;;;;10.60;3.67;;;;;;;;;;5050378;28;20044;-62
2023/01/31 02:36:15;;;;;;;7.40;3.72;;;;;;;;;;5050472;28;20025;-60
2023/01/31 02:38:41;;;;;;;9.25;3.97;;;;;;;;;;5050724;28;20040;-60
2023/01/31 02:41:40;;;;;;;7.00;3.67;;;;;;;;;;5050352;28;20021;-60
2023/01/31 02:47:03;;;;;;;6.65;3.10;;;;;;;;;;5050636;28;20036;-61
2023/01/31 02:49:35;;;;;;;7.00;3.13;;;;;;;;;;5050204;28;20056;-60
2023/01/31 02:52:15;;;;;;;9.57;3.65;;;;;;;;;;5049942;28;20541;-60
2023/01/31 02:57:35;;;;;;;6.35;3.42;;;;;;;;;;5026616;28;20037;-60
2023/01/31 03:00:02;;;;;;;6.50;3.08;;;;;;;;;;5050153;28;20033;-62
2023/01/31 03:02:28;;;;;;;7.20;3.30;;;;;;;;;;5049934;28;20055;-61
2023/01/31 03:04:54;;;;;;;7.22;3.47;;;;;;;;;;5050344;28;20081;-61
2023/01/31 03:07:25;;;;;;;8.18;3.70;;;;;;;;;;5049771;28;20029;-60
2023/01/31 03:10:10;;;;;;;6.05;3.35;;;;;;;;;;5049944;28;20079;-60
2023/01/31 03:12:42;;;;;;;8.65;3.22;;;;;;;;;;5049781;28;20049;-61
2023/01/31 03:17:30;;;;;;;5.88;3.10;;;;;;;;;;5050187;28;20025;-60
2023/01/31 03:18:25;;;;;;;8.38;2.95;;;;;;;;;;5053005;28;20045;-61
2023/01/31 03:21:07;;;;;;;5.82;3.03;;;;;;;;;;5053792;28;20505;-59
2023/01/31 03:23:36;;;;;;;5.68;3.00;;;;;;;;;;5053593;28;20067;-60
2023/01/31 03:26:03;;;;;;;7.75;3.30;;;;;;;;;;5053791;28;20373;-62
2023/01/31 03:28:31;;;;;;;6.97;2.90;;;;;;;;;;5053413;28;20021;-60
2023/01/31 03:31:04;;;;;;;8.63;3.63;;;;;;;;;;5053436;28;20049;-60
2023/01/31 03:33:32;;;;;;;7.72;3.47;;;;;;;;;;5053219;28;20021;-59
2023/01/31 03:36:04;;;;;;;6.88;3.30;;;;;;;;;;5053209;28;20117;-62
2023/01/31 03:38:33;;;;;;;9.43;3.75;;;;;;;;;;5053261;28;20070;-60
2023/01/31 03:41:05;;;;;;;7.10;3.03;;;;;;;;;;5053386;28;20040;-60
2023/01/31 03:43:36;;;;;;;7.00;3.45;;;;;;;;;;5052909;28;20497;-62
2023/01/31 03:46:15;;;;;;;5.80;2.88;;;;;;;;;;5053075;28;20096;-59
2023/01/31 03:48:43;;;;;;;6.32;2.90;;;;;;;;;;5053657;28;20053;-60
2023/01/31 03:51:12;;;;;;;7.22;2.45;;;;;;;;;;5053470;28;20021;-60
2023/01/31 03:53:49;;;;;;;7.30;3.05;;;;;;;;;;5053297;28;20032;-60
2023/01/31 03:56:17;;;;;;;10.43;3.47;;;;;;;;;;5052700;28;20029;-61
2023/01/31 03:58:47;;;;;;;6.43;3.30;;;;;;;;;;5052960;28;20022;-60
2023/01/31 04:01:14;;;;;;;8.13;3.60;;;;;;;;;;5053044;28;20071;-60
2023/01/31 04:03:42;;;;;;;6.50;3.10;;;;;;;;;;5053128;28;20439;-60
2023/01/31 04:06:08;;;;;;;5.40;3.28;;;;;;;;;;5052845;28;20432;-61
2023/01/31 04:08:36;;;;;;;6.82;3.53;;;;;;;;;;5052325;28;20075;-61
2023/01/31 04:11:05;;;;;;;7.90;3.03;;;;;;;;;;5052702;28;20495;-60
2023/01/31 04:13:31;;;;;;;6.90;2.90;;;;;;;;;;5052288;28;20025;-62
2023/01/31 04:15:57;;;;;;;8.07;3.08;;;;;;;;;;5052463;28;20021;-60
2023/01/31 04:18:23;;;;;;;8.18;3.25;;;;;;;;;;5052443;28;20110;-60
2023/01/31 04:20:49;;;;;;;5.82;3.03;;;;;;;;;;5052655;28;20465;-62
2023/01/31 04:23:17;;;;;;;6.45;3.00;;;;;;;;;;5052133;28;20104;-60
2023/01/31 04:25:43;;;;;;;5.93;2.70;;;;;;;;;;5052249;28;20562;-60
2023/01/31 04:28:09;;;;;;;7.68;3.25;;;;;;;;;;5052630;28;20028;-61
2023/01/31 04:30:35;;;;;;;5.40;2.42;;;;;;;;;;5052199;28;20022;-62
2023/01/31 04:33:01;;;;;;;6.07;2.42;;;;;;;;;;5052273;28;20082;-62
2023/01/31 04:35:27;;;;;;;6.95;2.92;;;;;;;;;;5052233;28;20025;-61
2023/01/31 04:37:53;;;;;;;5.57;2.58;;;;;;;;;;5052172;28;20535;-60
2023/01/31 04:40:19;;;;;;;5.60;2.50;;;;;;;;;;5051760;28;20025;-60
2023/01/31 04:42:45;;;;;;;8.02;2.60;;;;;;;;;;5052348;28;20024;-62
2023/01/31 04:45:11;;;;;;;7.20;2.45;;;;;;;;;;5052340;28;20028;-62
2023/01/31 04:47:37;;;;;;;4.95;2.20;;;;;;;;;;5051891;28;20033;-61
2023/01/31 04:50:04;;;;;;;7.32;2.75;;;;;;;;;;5052079;28;20025;-60
2023/01/31 04:52:30;;;;;;;6.93;2.65;;;;;;;;;;5051820;28;20040;-60
2023/01/31 04:54:56;;;;;;;5.65;2.58;;;;;;;;;;5051995;28;20025;-60
2023/01/31 04:57:22;;;;;;;6.70;2.70;;;;;;;;;;5051692;28;20041;-61
2023/01/31 04:59:49;;;;;;;10.07;3.00;;;;;;;;;;5051946;28;20053;-61
2023/01/31 05:02:16;;;;;;;8.32;2.97;;;;;;;;;;5051429;28;20036;-61
2023/01/31 05:04:42;;;;;;;7.45;2.67;;;;;;;;;;5052189;28;20095;-60
2023/01/31 05:07:08;;;;;;;7.63;2.88;;;;;;;;;;5051766;28;20573;-60
2023/01/31 05:09:34;;;;;;;7.32;2.65;;;;;;;;;;5051307;28;20078;-60
2023/01/31 05:12:00;;;;;;;8.23;2.83;;;;;;;;;;5051547;28;20033;-60
2023/01/31 05:14:26;;;;;;;7.03;2.40;;;;;;;;;;5051382;28;20021;-62
2023/01/31 05:16:52;;;;;;;8.23;2.53;;;;;;;;;;5051471;28;20056;-60
2023/01/31 05:19:18;;;;;;;6.43;2.55;;;;;;;;;;5051448;28;20055;-62
2023/01/31 05:21:53;;;;;;;7.22;2.70;;;;;;;;;;5051328;28;20474;-60
2023/01/31 05:24:23;;;;;;;7.97;2.60;;;;;;;;;;5051206;28;20017;-59
2023/01/31 05:26:51;;;;;;;7.63;2.60;;;;;;;;;;5051364;28;20177;-60
2023/01/31 05:29:17;;;;;;;6.22;2.67;;;;;;;;;;5051037;28;20456;-59
2023/01/31 05:31:43;;;;;;;5.80;2.78;;;;;;;;;;5051343;28;20086;-59
2023/01/31 05:34:13;;;;;;;5.13;2.22;;;;;;;;;;5051712;28;20025;-62
2023/01/31 05:36:39;;;;;;;5.90;2.45;;;;;;;;;;5051349;28;20059;-59
2023/01/31 05:39:05;;;;;;;7.00;2.92;;;;;;;;;;5050718;28;20078;-60
2023/01/31 05:41:31;;;;;;;4.32;2.05;;;;;;;;;;5051084;28;20029;-59
2023/01/31 05:43:57;;;;;;;4.95;2.00;;;;;;;;;;5051022;28;20492;-59
2023/01/31 05:46:23;;;;;;;6.10;2.33;;;;;;;;;;5050690;28;20032;-62
2023/01/31 05:48:49;;;;;;;8.10;2.85;;;;;;;;;;5051036;28;20032;-59
2023/01/31 05:51:15;;;;;;;7.53;2.67;;;;;;;;;;5050714;28;20033;-59
2023/01/31 05:53:41;;;;;;;6.60;2.28;;;;;;;;;;5051276;28;20021;-60
2023/01/31 05:56:07;;;;;;;5.70;2.45;;;;;;;;;;5050948;28;20036;-60
2023/01/31 05:58:33;;;;;;;4.93;2.25;;;;;;;;;;5050530;28;20125;-60
2023/01/31 06:00:59;;;;;;;6.10;2.55;;;;;;;;;;5051029;28;20115;-59
2023/01/31 06:03:25;;;;;;;3.97;2.05;;;;;;;;;;5050558;28;20064;-63
2023/01/31 06:05:51;;;;;;;6.28;2.35;;;;;;;;;;5050570;28;20055;-60
2023/01/31 06:08:17;;;;;;;7.30;2.75;;;;;;;;;;5050797;28;20029;-59
2023/01/31 06:10:43;;;;;;;4.38;1.90;;;;;;;;;;5050619;28;20025;-59
2023/01/31 06:13:09;;;;;;;7.80;2.20;;;;;;;;;;5051093;28;20576;-62
2023/01/31 06:15:36;;;;;;;7.47;3.03;;;;;;;;;;5050458;28;20025;-62
2023/01/31 06:18:03;;;;;;;5.13;1.80;;;;;;;;;;5050540;28;20073;-60
2023/01/31 06:20:29;;;;;;;7.18;2.70;;;;;;;;;;5050292;28;20036;-61
2023/01/31 06:22:55;;;;;;;6.60;2.75;;;;;;;;;;5050500;28;20104;-60
2023/01/31 06:25:21;;;;;;;4.25;2.08;;;;;;;;;;5050438;28;20056;-60
2023/01/31 06:27:47;;;;;;;4.15;1.83;;;;;;;;;;5050695;28;20025;-64
2023/01/31 06:30:13;;;;;;;5.03;1.98;;;;;;;;;;5050817;28;20025;-60
2023/01/31 06:32:39;;;;;;;4.57;1.80;;;;;;;;;;5050647;28;20040;-60
2023/01/31 06:35:05;;;;;;;6.05;2.50;;;;;;;;;;5050582;28;20045;-60
2023/01/31 06:37:31;;;;;;;7.35;2.25;;;;;;;;;;5050481;28;20405;-63
2023/01/31 06:39:58;;;;;;;6.55;2.22;;;;;;;;;;5050675;28;20036;-63
2023/01/31 06:42:24;;;;;;;6.68;2.20;;;;;;;;;;5050111;28;20089;-64
2023/01/31 06:44:50;;;;;;;6.25;1.80;;;;;;;;;;5050382;28;20021;-60
2023/01/31 06:47:16;;;;;;;7.38;2.25;;;;;;;;;;5050100;28;20167;-62
2023/01/31 06:49:42;;;;;;;7.38;2.38;;;;;;;;;;5050523;28;20029;-60
2023/01/31 06:52:08;;;;;;;5.95;2.25;;;;;;;;;;5052057;28;20032;-65
2023/01/31 06:54:34;;;;;;;8.30;2.70;;;;;;;;;;5054145;28;20029;-60
2023/01/31 06:57:00;;;;;;;6.82;2.67;;;;;;;;;;5054179;28;20025;-59
2023/01/31 06:59:26;;;;;;;6.25;2.65;;;;;;;;;;5053850;28;20053;-64
2023/01/31 07:01:52;;;;;;;8.15;2.83;;;;;;;;;;5054304;28;20433;-59
2023/01/31 07:04:18;;;;;;;8.30;2.45;;;;;;;;;;5053941;28;20505;-60
2023/01/31 07:06:44;;;;;;;6.22;2.22;;;;;;;;;;5054105;28;20090;-62
2023/01/31 07:09:10;;;;;;;6.40;2.92;;;;;;;;;;5053994;28;20024;-59
2023/01/31 07:11:37;;;;;;;8.07;3.15;;;;;;;;;;5053594;28;20025;-63
2023/01/31 07:14:03;;;;;;;6.45;2.92;;;;;;;;;;5053910;28;20037;-62
2023/01/31 07:16:29;;;;;;;8.15;2.85;;;;;;;;;;5053378;28;20508;-59
2023/01/31 07:18:55;;;;;;;9.35;3.25;;;;;;;;;;5053753;28;20029;-60
2023/01/31 07:21:22;;;;;;;6.10;2.90;;;;;;;;;;5053181;28;20032;-63
2023/01/31 07:23:48;;;;;;;6.80;2.45;;;;;;;;;;5053735;28;20029;-59
2023/01/31 07:26:14;;;;;;;6.90;3.08;;;;;;;;;;5053720;28;20029;-59
2023/01/31 07:28:40;;;;;;;8.02;3.05;;;;;;;;;;5053939;28;20029;-61
2023/01/31 07:31:09;;;;;;;7.13;2.63;;;;;;;;;;5053823;28;20470;-68
2023/01/31 07:33:35;;;;;;;6.35;2.70;;;;;;;;;;5053568;28;20032;-69
2023/01/31 07:36:03;;;;;;;8.70;3.22;;;;;;;;;;5053851;28;20018;-69
2023/01/31 07:38:29;;;;;;;7.68;3.13;;;;;;;;;;5053358;28;20116;-61
2023/01/31 07:40:58;;;;;;;10.20;3.45;;;;;;;;;;5053579;28;20068;-70
2023/01/31 07:43:24;;;;;;;20.05;3.75;;;;;;;;;;5052777;28;20028;-59
2023/01/31 07:45:49;;;;;;;10.77;2.88;;;;;;;;;;5053637;28;20021;-67
2023/01/31 07:48:15;;;;;;;8.40;2.55;;;;;;;;;;5052257;28;20127;-68
2023/01/31 07:50:41;;;;;;;10.25;3.28;;;;;;;;;;5053478;28;20397;-69
2023/01/31 07:53:07;;;;;;;13.65;3.58;;;;;;;;;;5053333;28;20160;-58
2023/01/31 07:55:33;;;;;;;9.60;3.15;;;;;;;;;;5052502;28;20033;-57
2023/01/31 07:57:59;;;;;;;11.30;2.90;;;;;;;;;;5051298;28;20044;-68
2023/01/31 08:03:31;;;;;;;9.00;3.05;;;;;;;;;;5049247;28;20036;-56
2023/01/31 08:05:57;;;;;;;10.90;3.90;;;;;;;;;;5051718;28;20028;-69
2023/01/31 08:08:23;;;;;;;13.15;3.35;;;;;;;;;;5052019;28;20423;-59
2023/01/31 08:10:49;;;;;;;8.52;3.13;;;;;;;;;;5049168;28;20028;-60
2023/01/31 08:13:15;;;;;;;12.00;3.30;;;;;;;;;;5050480;28;20102;-62
2023/01/31 08:15:41;;;;;;;11.90;3.78;;;;;;;;;;5052560;28;20028;-69
2023/01/31 08:18:07;;;;;;;12.07;3.45;;;;;;;;;;5052886;28;20485;-69
2023/01/31 08:20:36;;;;;;;9.07;3.22;;;;;;;;;;5052164;28;20025;-69
2023/01/31 08:23:02;;;;;;;8.10;2.80;;;;;;;;;;5052789;28;20057;-57
2023/01/31 08:25:29;;;;;;;15.13;3.90;;;;;;;;;;5052532;28;20053;-69
2023/01/31 08:27:56;;;;;;;10.48;3.72;;;;;;;;;;5052676;28;20025;-69
2023/01/31 08:30:23;;;;;;;10.68;3.28;;;;;;;;;;5052400;28;20053;-69
2023/01/31 08:32:49;;;;;;;11.18;3.58;;;;;;;;;;5052687;28;20032;-65
2023/01/31 08:35:15;;;;;;;12.82;3.22;;;;;;;;;;5052399;28;20021;-65
2023/01/31 08:37:41;;;;;;;11.20;4.28;;;;;;;;;;5052412;28;20524;-67
2023/01/31 08:40:07;;;;;;;10.73;3.67;;;;;;;;;;5050213;28;20067;-57
2023/01/31 08:42:33;;;;;;;8.15;3.47;;;;;;;;;;5050880;28;20831;-59
2023/01/31 08:44:59;;;;;;;10.52;3.05;;;;;;;;;;5051832;28;20029;-68
2023/01/31 08:47:25;;;;;;;9.32;3.40;;;;;;;;;;5050898;28;20087;-59
2023/01/31 08:49:51;;;;;;;13.43;3.63;;;;;;;;;;5052392;28;20067;-58
2023/01/31 08:52:17;;;;;;;8.90;2.83;;;;;;;;;;5052009;28;20025;-56
2023/01/31 08:54:43;;;;;;;10.45;3.10;;;;;;;;;;5052362;28;20029;-58
2023/01/31 08:57:09;;;;;;;7.32;2.97;;;;;;;;;;5052587;28;20037;-57
2023/01/31 08:59:35;;;;;;;7.93;2.83;;;;;;;;;;5050460;28;20550;-64
2023/01/31 09:02:01;;;;;;;13.40;3.17;;;;;;;;;;5051126;28;20120;-58
2023/01/31 09:04:27;;;;;;;7.97;2.72;;;;;;;;;;5051919;28;20021;-58
2023/01/31 09:06:54;;;;;;;7.43;2.90;;;;;;;;;;5051925;28;20138;-70
2023/01/31 09:09:20;;;;;;;9.23;3.28;;;;;;;;;;5051640;28;20226;-66
2023/01/31 09:11:46;;;;;;;6.55;3.05;;;;;;;;;;5051759;28;20040;-69
2023/01/31 09:14:12;;;;;;;8.80;3.38;;;;;;;;;;5051501;28;20018;-69
2023/01/31 09:16:38;;;;;;;10.52;2.83;;;;;;;;;;5050545;28;20033;-70
2023/01/31 09:19:04;;;;;;;8.77;3.03;;;;;;;;;;5050086;28;20513;-62
2023/01/31 09:21:30;;;;;;;9.00;3.10;;;;;;;;;;5049759;28;20025;-65
2023/01/31 09:23:57;;;;;;;8.65;3.40;;;;;;;;;;5050996;28;20036;-59
2023/01/31 09:26:23;;;;;;;6.93;2.63;;;;;;;;;;5051401;28;20381;-70
2023/01/31 09:28:49;;;;;;;9.90;3.08;;;;;;;;;;5051669;28;20036;-61
2023/01/31 09:31:16;;;;;;;8.15;2.80;;;;;;;;;;5051328;28;20342;-62
2023/01/31 09:33:43;;;;;;;8.77;3.45;;;;;;;;;;5051807;28;20029;-68
2023/01/31 09:36:10;;;;;;;8.32;3.25;;;;;;;;;;5051896;28;20025;-60
2023/01/31 09:38:36;;;;;;;8.70;3.35;;;;;;;;;;5051394;28;20127;-68
2023/01/31 09:41:09;;;;;;;9.40;3.22;;;;;;;;;;5051498;28;20052;-68
2023/01/31 09:43:39;;;;;;;9.35;3.33;;;;;;;;;;5051240;28;20024;-69
2023/01/31 09:46:10;;;;;;;10.38;3.63;;;;;;;;;;5051412;28;20032;-62
2023/01/31 09:48:37;;;;;;;8.15;2.97;;;;;;;;;;5051152;28;20052;-66
2023/01/31 09:51:03;;;;;;;8.35;2.97;;;;;;;;;;5051352;28;20025;-59
2023/01/31 09:53:34;;;;;;;11.43;4.07;;;;;;;;;;5051096;28;20056;-60
2023/01/31 09:56:00;;;;;;;10.35;3.58;;;;;;;;;;5051280;28;20029;-59
2023/01/31 09:58:45;;;;;;;9.15;3.35;;;;;;;;;;5050918;28;20036;-69
2023/01/31 10:01:10;;;;;;;8.75;3.03;;;;;;;;;;5051339;28;20029;-59
2023/01/31 10:03:39;;;;;;;9.38;2.90;;;;;;;;;;5050941;28;20036;-69
2023/01/31 10:06:08;;;;;;;7.70;2.72;;;;;;;;;;5050879;28;20405;-70
2023/01/31 10:08:34;;;;;;;9.63;3.53;;;;;;;;;;5050890;28;20535;-66
2023/01/31 10:11:02;;;;;;;6.35;2.83;;;;;;;;;;5051103;28;20029;-60
2023/01/31 10:13:35;;;;;;;6.82;2.95;;;;;;;;;;5050840;28;20021;-70
2023/01/31 10:16:16;;;;;;;6.60;2.72;;;;;;;;;;5050919;28;20078;-69
2023/01/31 10:18:45;;;;;;;9.63;2.83;;;;;;;;;;5051158;28;20055;-69
2023/01/31 10:21:28;;;;;;;6.80;2.70;;;;;;;;;;5051292;28;20025;-68
2023/01/31 10:23:59;;;;;;;6.45;2.60;;;;;;;;;;5049347;28;20071;-66
2023/01/31 10:26:27;;;;;;;7.25;3.20;;;;;;;;;;5052172;28;20477;-61
2023/01/31 10:28:59;;;;;;;7.88;2.58;;;;;;;;;;5051770;28;20051;-69
2023/01/31 10:31:43;;;;;;;6.82;2.92;;;;;;;;;;5054564;28;20063;-61
2023/01/31 10:34:09;;;;;;;10.20;2.85;;;;;;;;;;5052484;28;20089;-59
2023/01/31 10:36:44;;;;;;;5.50;2.50;;;;;;;;;;5054454;28;20029;-58
2023/01/31 10:39:20;;;;;;;11.82;3.15;;;;;;;;;;5054965;28;20477;-69
2023/01/31 10:41:46;;;;;;;;;;;;;;;;;;5055270;28;20083;-69
2023/01/31 10:44:27;;;;;;;8.38;3.38;;;;;;;;;;5055175;28;20364;-60
2023/01/31 10:46:57;;;;;;;6.10;2.78;;;;;;;;;;5054638;28;20100;-69
2023/01/31 10:49:25;;;;;;;7.55;2.85;;;;;;;;;;5053844;28;20036;-69
2023/01/31 10:52:10;;;;;;;5.78;2.75;;;;;;;;;;5054195;28;20025;-60
2023/01/31 10:54:55;;;;;;;6.40;2.95;;;;;;;;;;5054286;28;20477;-66
2023/01/31 10:57:21;;;;;;;10.25;3.38;;;;;;;;;;5034112;28;20045;-59
2023/01/31 10:59:48;;;;;;;9.55;3.33;;;;;;;;;;5034501;28;20101;-59
2023/01/31 11:02:18;;;;;;;5.72;2.40;;;;;;;;;;5034391;28;20026;-58
2023/01/31 11:04:44;;;;;;;8.95;2.90;;;;;;;;;;5034660;28;20067;-59
2023/01/31 11:07:10;;;;;;;7.78;2.85;;;;;;;;;;5049984;28;20115;-69
2023/01/31 11:09:38;;;;;;;7.28;2.67;;;;;;;;;;5053666;28;20485;-66
2023/01/31 11:12:06;;;;;;;5.65;2.60;;;;;;;;;;5053993;28;20025;-59
2023/01/31 11:14:32;;;;;;;9.25;2.65;;;;;;;;;;5052377;28;20504;-60
2023/01/31 11:17:00;;;;;;;7.35;2.72;;;;;;;;;;5052032;28;20045;-69
2023/01/31 11:19:26;;;;;;;5.97;2.53;;;;;;;;;;5053587;28;20032;-59
2023/01/31 11:21:54;;;;;;;6.30;2.70;;;;;;;;;;5053875;28;20389;-62
2023/01/31 11:24:22;;;;;;;7.60;2.78;;;;;;;;;;5053068;28;20082;-65
2023/01/31 11:26:54;;;;;;;6.47;2.97;;;;;;;;;;5053140;28;20139;-63
2023/01/31 11:29:25;;;;;;;13.63;2.92;;;;;;;;;;5051850;28;20148;-57
2023/01/31 11:31:51;;;;;;;7.18;2.25;;;;;;;;;;5050144;28;20407;-63
2023/01/31 11:34:19;;;;;;;6.90;2.95;;;;;;;;;;5052037;28;20543;-65
2023/01/31 11:36:46;;;;;;;12.02;2.63;;;;;;;;;;5052450;28;20408;-63
2023/01/31 11:39:24;;;;;;;8.85;2.50;;;;;;;;;;5051641;28;20071;-65
2023/01/31 11:41:50;;;;;;;10.05;2.95;;;;;;;;;;5051801;28;20017;-65
2023/01/31 11:44:18;;;;;;;9.77;2.42;;;;;;;;;;5049153;28;20025;-66
2023/01/31 11:46:53;;;;;;;7.80;2.35;;;;;;;;;;5051692;28;20489;-61
2023/01/31 11:49:26;;;;;;;8.40;2.35;;;;;;;;;;5049387;28;20079;-65
2023/01/31 11:51:52;;;;;;;8.93;2.75;;;;;;;;;;5051673;28;20075;-67
2023/01/31 11:54:21;;;;;;;6.93;2.70;;;;;;;;;;5051296;28;20025;-60
2023/01/31 11:56:47;;;;;;;11.10;2.53;;;;;;;;;;5051579;28;20086;-66
2023/01/31 11:59:17;;;;;;;11.45;3.00;;;;;;;;;;5051143;28;20029;-64
2023/01/31 12:01:51;;;;;;;7.45;2.65;;;;;;;;;;5051552;28;20028;-64
2023/01/31 12:04:19;;;;;;;9.05;2.90;;;;;;;;;;5048593;28;20104;-64
2023/01/31 12:06:58;;;;;;;8.98;3.40;;;;;;;;;;5033472;28;20374;-64
2023/01/31 12:09:25;;;;;;;7.90;2.50;;;;;;;;;;5049279;28;20025;-65
2023/01/31 12:11:59;;;;;;;6.28;2.50;;;;;;;;;;5051285;28;20036;-64
2023/01/31 12:14:36;;;;;;;8.55;2.45;;;;;;;;;;5051418;28;20374;-64
2023/01/31 12:17:02;;;;;;;7.72;2.90;;;;;;;;;;5049763;28;20029;-64
2023/01/31 12:19:35;;;;;;;5.80;2.28;;;;;;;;;;5050987;28;20028;-64
2023/01/31 12:22:05;;;;;;;9.32;2.40;;;;;;;;;;5050992;28;20055;-65
2023/01/31 12:24:31;;;;;;;9.38;3.33;;;;;;;;;;5050754;28;20024;-64
2023/01/31 12:27:16;;;;;;;7.18;2.10;;;;;;;;;;5050898;28;20079;-64
2023/01/31 12:29:47;;;;;;;10.18;2.55;;;;;;;;;;5049576;28;20021;-64
2023/01/31 12:32:32;;;;;;;9.38;2.33;;;;;;;;;;5048939;28;20389;-64
2023/01/31 12:35:13;;;;;;;8.30;2.75;;;;;;;;;;5052397;28;20029;-63
2023/01/31 12:37:56;;;;;;;7.00;2.13;;;;;;;;;;5052410;28;20052;-64
2023/01/31 12:40:41;;;;;;;7.60;2.50;;;;;;;;;;5031989;28;20025;-64
2023/01/31 12:43:33;;;;;;;5.25;1.90;;;;;;;;;;5045789;28;20044;-64
2023/01/31 12:46:08;;;;;;;8.35;2.13;;;;;;;;;;5014844;28;20120;-64
2023/01/31 12:48:49;;;;;;;6.25;1.80;;;;;;;;;;5050322;28;20037;-64
2023/01/31 12:51:21;;;;;;;4.82;1.70;;;;;;;;;;5050501;28;20055;-63
2023/01/31 12:54:13;;;;;;;7.32;2.00;;;;;;;;;;5048335;28;20020;-64
2023/01/31 12:56:42;;;;;;;6.55;2.03;;;;;;;;;;5043183;28;20043;-63
2023/01/31 12:59:24;;;;;;;7.30;2.30;;;;;;;;;;5048942;28;20425;-64
2023/01/31 13:02:02;;;;;;;5.75;2.00;;;;;;;;;;5049239;28;20374;-63
2023/01/31 13:04:45;;;;;;;5.80;1.90;;;;;;;;;;5048716;28;20029;-63
2023/01/31 13:07:17;;;;;;;7.47;2.22;;;;;;;;;;5049248;28;20509;-63
2023/01/31 13:09:45;;;;;;;7.40;1.90;;;;;;;;;;5051034;28;20017;-63
2023/01/31 13:12:18;;;;;;;6.90;1.95;;;;;;;;;;5051709;28;20032;-64
2023/01/31 13:14:47;;;;;;;5.45;2.20;;;;;;;;;;5051877;28;20017;-64
2023/01/31 13:17:17;;;;;;;10.38;2.72;;;;;;;;;;5051175;28;20033;-63
2023/01/31 13:19:45;;;;;;;5.28;2.03;;;;;;;;;;5051954;28;20096;-63
2023/01/31 13:22:18;;;;;;;8.30;2.33;;;;;;;;;;5051948;28;20389;-64
2023/01/31 13:24:47;;;;;;;8.55;2.05;;;;;;;;;;5051573;28;20402;-63
2023/01/31 13:27:19;;;;;;;6.05;1.80;;;;;;;;;;5051540;28;20481;-63
2023/01/31 13:29:55;;;;;;;8.77;2.70;;;;;;;;;;5051447;28;20021;-62
2023/01/31 13:32:26;;;;;;;6.50;2.03;;;;;;;;;;5051354;28;20053;-65
2023/01/31 13:34:57;;;;;;;9.00;2.03;;;;;;;;;;5051523;28;20492;-64
2023/01/31 13:37:25;;;;;;;9.93;2.47;;;;;;;;;;5051181;28;20033;-63
2023/01/31 13:39:54;;;;;;;5.10;1.52;;;;;;;;;;5051383;28;20025;-64
2023/01/31 13:42:19;;;;;;;7.70;1.83;;;;;;;;;;5050725;28;20033;-64
2023/01/31 13:44:46;;;;;;;8.05;2.42;;;;;;;;;;5051186;28;20120;-64
2023/01/31 13:47:19;;;;;;;6.35;1.90;;;;;;;;;;5051692;28;20020;-64
2023/01/31 13:49:45;;;;;;;8.98;1.85;;;;;;;;;;5051331;28;20032;-64
2023/01/31 13:52:20;;;;;;;7.72;1.85;;;;;;;;;;5051509;28;20024;-64
2023/01/31 13:54:51;;;;;;;4.97;1.50;;;;;;;;;;5051275;28;20027;-64
2023/01/31 13:57:26;;;;;;;10.55;2.40;;;;;;;;;;5050858;28;20356;-64
2023/01/31 13:59:56;;;;;;;5.38;1.60;;;;;;;;;;5050905;28;20033;-64
2023/01/31 14:02:22;;;;;;;6.93;1.33;;;;;;;;;;5050656;28;20075;-64
2023/01/31 14:04:48;;;;;;;8.50;1.80;;;;;;;;;;5051047;28;20033;-63
2023/01/31 14:07:16;;;;;;;6.57;1.85;;;;;;;;;;5050540;28;20551;-64
2023/01/31 14:09:43;;;;;;;6.97;1.73;;;;;;;;;;5051305;28;20025;-63
2023/01/31 14:12:09;;;;;;;5.80;2.03;;;;;;;;;;5051328;28;20558;-62
2023/01/31 14:14:39;;;;;;;6.72;2.33;;;;;;;;;;5050749;28;20025;-62
2023/01/31 14:17:10;;;;;;;7.72;2.00;;;;;;;;;;5050774;28;20401;-64
2023/01/31 14:19:43;;;;;;;4.70;1.58;;;;;;;;;;5050597;28;20048;-62
2023/01/31 14:22:12;;;;;;;3.42;1.40;;;;;;;;;;5051130;28;20029;-62
2023/01/31 14:24:52;;;;;;;6.03;1.60;;;;;;;;;;5050851;28;20070;-62
2023/01/31 14:27:26;;;;;;;5.70;1.60;;;;;;;;;;5050553;28;20040;-62
2023/01/31 14:29:54;;;;;;;5.70;1.50;;;;;;;;;;5050885;28;20028;-62
2023/01/31 14:32:40;;;;;;;3.35;1.00;;;;;;;;;;5050524;28;20139;-62
2023/01/31 14:35:12;;;;;;;5.65;1.42;;;;;;;;;;5050666;28;20126;-64
2023/01/31 14:38:02;;;;;;;8.23;1.70;;;;;;;;;;5050824;28;20048;-62
2023/01/31 14:40:30;;;;;;;5.35;1.73;;;;;;;;;;5050414;28;20108;-62
2023/01/31 14:43:21;;;;;;;5.75;1.75;;;;;;;;;;5050628;28;20025;-62
2023/01/31 14:45:47;;;;;;;4.30;1.75;;;;;;;;;;5050488;28;20032;-62
2023/01/31 14:48:13;;;;;;;4.05;1.40;;;;;;;;;;5050921;28;20033;-63
2023/01/31 14:50:51;;;;;;;4.70;1.60;;;;;;;;;;5050815;28;20659;-63
2023/01/31 14:53:36;;;;;;;4.00;1.40;;;;;;;;;;5050525;28;20056;-63
2023/01/31 14:56:07;;;;;;;4.75;1.40;;;;;;;;;;5050612;28;20029;-63
2023/01/31 14:58:34;;;;;;;5.43;1.50;;;;;;;;;;5050346;28;20401;-63
2023/01/31 15:01:03;;;;;;;4.18;1.23;;;;;;;;;;5050470;28;20026;-63